Time;durP1;ratioP1;P1;durP2;ratioP2;P2;SDS_P1;SDS_P2;PMS_P1;PMS_P2;Temp;Humidity;BMP_temperature;BMP_pressure;BME280_temperature;BME280_humidity;BME280_pressure;Samples;Min_cycle;Max_cycle;Signal;HPM_P1;HPM_P2
2024/04/03 00:00:36;;;;;;;18.67;5.20;;;;;;;;;;4963369;28;20046;-87
2024/04/03 00:03:02;;;;;;;21.63;5.57;;;;;;;;;;4947419;28;20512;-87
2024/04/03 00:05:28;;;;;;;16.10;5.80;;;;;;;;;;4963121;28;20043;-88
2024/04/03 00:07:54;;;;;;;18.42;5.88;;;;;;;;;;4963507;28;20057;-87
2024/04/03 00:10:20;;;;;;;21.83;5.30;;;;;;;;;;4944805;28;20043;-88
2024/04/03 00:12:46;;;;;;;18.63;5.53;;;;;;;;;;4944341;28;20053;-87
2024/04/03 00:15:13;;;;;;;18.15;5.85;;;;;;;;;;4944141;28;20085;-87
2024/04/03 00:17:40;;;;;;;24.80;6.28;;;;;;;;;;4944324;28;20154;-87
2024/04/03 00:20:06;;;;;;;14.75;5.35;;;;;;;;;;4944199;28;20047;-87
2024/04/03 00:22:32;;;;;;;13.57;4.88;;;;;;;;;;4944247;28;20501;-87
2024/04/03 00:24:58;;;;;;;13.98;4.95;;;;;;;;;;4959959;28;20043;-87
2024/04/03 00:27:24;;;;;;;19.48;5.40;;;;;;;;;;4960235;28;20047;-87
2024/04/03 00:29:50;;;;;;;21.08;6.53;;;;;;;;;;4943871;28;20482;-87
2024/04/03 00:32:16;;;;;;;20.20;6.45;;;;;;;;;;4960105;28;20058;-87
2024/04/03 00:34:42;;;;;;;18.05;5.47;;;;;;;;;;4943703;28;20549;-87
2024/04/03 00:37:08;;;;;;;17.95;6.22;;;;;;;;;;4943808;28;20049;-87
2024/04/03 00:39:35;;;;;;;19.52;6.13;;;;;;;;;;4943956;28;20050;-87
2024/04/03 00:42:01;;;;;;;19.98;5.90;;;;;;;;;;4943630;28;20494;-87
2024/04/03 00:44:27;;;;;;;20.30;6.30;;;;;;;;;;4959801;28;20199;-87
2024/04/03 00:46:53;;;;;;;17.35;5.97;;;;;;;;;;4943551;28;20050;-87
2024/04/03 00:49:20;;;;;;;17.17;6.18;;;;;;;;;;4943494;28;20050;-87
2024/04/03 00:51:49;;;;;;;19.10;5.90;;;;;;;;;;4959535;28;20068;-87
2024/04/03 00:54:16;;;;;;;21.15;6.38;;;;;;;;;;4959387;28;20046;-87
2024/04/03 00:56:42;;;;;;;22.48;6.22;;;;;;;;;;4943405;28;20090;-87
2024/04/03 00:59:08;;;;;;;14.13;6.20;;;;;;;;;;4943445;28;20130;-87
2024/04/03 01:01:34;;;;;;;23.40;6.15;;;;;;;;;;4959603;28;20038;-87
2024/04/03 01:04:00;;;;;;;19.02;5.82;;;;;;;;;;4959354;28;20545;-86
2024/04/03 01:06:26;;;;;;;20.50;6.57;;;;;;;;;;4960077;28;20081;-87
2024/04/03 01:08:52;;;;;;;20.30;5.82;;;;;;;;;;4959201;28;20042;-87
2024/04/03 01:11:18;;;;;;;18.05;5.90;;;;;;;;;;4943181;28;20046;-87
2024/04/03 01:13:44;;;;;;;17.52;5.63;;;;;;;;;;4943059;28;20050;-87
2024/04/03 01:16:10;;;;;;;24.17;6.28;;;;;;;;;;4943365;28;20038;-87
2024/04/03 01:18:36;;;;;;;20.05;6.18;;;;;;;;;;4943302;28;20394;-87
2024/04/03 01:21:03;;;;;;;20.70;5.97;;;;;;;;;;4943423;28;20126;-87
2024/04/03 01:23:29;;;;;;;19.60;6.05;;;;;;;;;;4943243;28;20051;-87
2024/04/03 01:25:55;;;;;;;25.85;6.53;;;;;;;;;;4958777;28;20046;-87
2024/04/03 01:28:21;;;;;;;19.08;6.55;;;;;;;;;;4959217;28;20410;-87
2024/04/03 01:30:48;;;;;;;18.00;5.68;;;;;;;;;;4942863;28;20049;-87
2024/04/03 01:33:14;;;;;;;16.02;5.90;;;;;;;;;;4958673;28;20046;-87
2024/04/03 01:35:40;;;;;;;22.17;6.65;;;;;;;;;;4942724;28;20039;-87
2024/04/03 01:38:06;;;;;;;21.20;5.80;;;;;;;;;;4958837;28;20478;-87
2024/04/03 01:40:32;;;;;;;17.90;5.72;;;;;;;;;;4956597;28;20058;-87
2024/04/03 01:42:58;;;;;;;19.17;5.22;;;;;;;;;;4923635;29;20043;-87
2024/04/03 01:45:24;;;;;;;18.83;5.78;;;;;;;;;;4939465;29;20070;-86
2024/04/03 01:47:50;;;;;;;24.08;6.00;;;;;;;;;;4939436;29;20043;-87
2024/04/03 01:50:20;;;;;;;19.40;4.88;;;;;;;;;;4923466;29;20061;-87
2024/04/03 01:52:46;;;;;;;18.77;5.18;;;;;;;;;;4939163;29;20047;-87
2024/04/03 01:55:12;;;;;;;17.13;5.15;;;;;;;;;;4939424;29;20511;-87
2024/04/03 01:57:38;;;;;;;24.42;5.30;;;;;;;;;;4923323;29;20050;-87
2024/04/03 02:00:05;;;;;;;19.65;5.40;;;;;;;;;;4939131;29;20043;-87
2024/04/03 02:02:31;;;;;;;16.13;5.05;;;;;;;;;;4939457;29;20038;-87
2024/04/03 02:04:57;;;;;;;19.08;5.88;;;;;;;;;;4939297;29;20042;-87
2024/04/03 02:07:23;;;;;;;17.17;6.18;;;;;;;;;;4923282;29;20525;-87
2024/04/03 02:09:49;;;;;;;19.42;5.88;;;;;;;;;;4938999;29;20553;-87
2024/04/03 02:12:15;;;;;;;23.13;6.78;;;;;;;;;;4923251;29;20121;-87
2024/04/03 02:14:41;;;;;;;20.75;5.97;;;;;;;;;;4923080;29;20043;-87
2024/04/03 02:17:07;;;;;;;21.80;6.55;;;;;;;;;;4925144;29;20046;-86
2024/04/03 02:19:33;;;;;;;16.95;5.90;;;;;;;;;;4943936;29;20050;-87
2024/04/03 02:21:59;;;;;;;16.80;5.38;;;;;;;;;;4925543;29;20043;-87
2024/04/03 02:24:25;;;;;;;17.55;5.63;;;;;;;;;;4939787;29;20499;-87
2024/04/03 02:26:51;;;;;;;13.90;6.53;;;;;;;;;;4938617;29;20050;-88
2024/04/03 02:29:18;;;;;;;16.65;5.88;;;;;;;;;;4923116;29;20051;-87
2024/04/03 02:31:44;;;;;;;18.92;6.80;;;;;;;;;;4939030;29;20047;-87
2024/04/03 02:34:10;;;;;;;19.98;6.63;;;;;;;;;;4938062;29;20054;-88
2024/04/03 02:36:37;;;;;;;21.55;7.57;;;;;;;;;;4922920;29;20047;-88
2024/04/03 02:39:03;;;;;;;21.95;6.22;;;;;;;;;;4929039;29;20450;-88
2024/04/03 02:41:29;;;;;;;22.58;8.13;;;;;;;;;;4940056;28;20066;-88
2024/04/03 02:43:55;;;;;;;17.58;6.68;;;;;;;;;;4960131;28;20047;-88
2024/04/03 02:46:21;;;;;;;21.38;8.45;;;;;;;;;;4941595;28;20043;-88
2024/04/03 02:48:47;;;;;;;21.75;7.82;;;;;;;;;;4941795;28;20134;-88
2024/04/03 02:51:13;;;;;;;22.77;8.85;;;;;;;;;;4941875;28;20397;-88
2024/04/03 02:53:42;;;;;;;29.80;8.80;;;;;;;;;;4957926;28;20154;-88
2024/04/03 02:56:08;;;;;;;25.83;8.88;;;;;;;;;;4941672;28;20042;-88
2024/04/03 02:58:35;;;;;;;31.23;9.93;;;;;;;;;;4941730;28;20182;-88
2024/04/03 03:01:05;;;;;;;24.90;9.40;;;;;;;;;;4941518;28;20081;-88
2024/04/03 03:03:31;;;;;;;29.10;10.25;;;;;;;;;;4942094;28;20393;-88
2024/04/03 03:05:58;;;;;;;25.80;9.85;;;;;;;;;;4941793;28;20339;-88
2024/04/03 03:08:24;;;;;;;29.77;9.35;;;;;;;;;;4941401;28;20483;-88
2024/04/03 03:10:50;;;;;;;30.42;9.85;;;;;;;;;;4957441;28;20125;-88
2024/04/03 03:13:16;;;;;;;30.90;10.68;;;;;;;;;;4941633;28;20398;-88
2024/04/03 03:15:50;;;;;;;30.63;9.93;;;;;;;;;;4958210;28;20046;-88
2024/04/03 03:18:16;;;;;;;30.52;9.63;;;;;;;;;;4941375;28;20042;-89
2024/04/03 03:20:45;;;;;;;30.88;10.85;;;;;;;;;;4957601;28;20043;-88
2024/04/03 03:23:11;;;;;;;25.05;10.95;;;;;;;;;;4941601;28;20051;-88
2024/04/03 03:25:37;;;;;;;30.48;11.45;;;;;;;;;;4941718;28;20045;-88
2024/04/03 03:28:03;;;;;;;27.05;11.80;;;;;;;;;;4941595;28;20042;-89
2024/04/03 03:30:29;;;;;;;32.58;12.18;;;;;;;;;;4957465;28;20487;-88
2024/04/03 03:32:55;;;;;;;28.52;12.15;;;;;;;;;;4957049;28;20137;-88
2024/04/03 03:35:21;;;;;;;34.95;13.10;;;;;;;;;;4941208;28;20058;-89
2024/04/03 03:37:47;;;;;;;33.13;13.27;;;;;;;;;;4957713;28;20042;-88
2024/04/03 03:40:13;;;;;;;28.23;12.98;;;;;;;;;;4938039;29;20054;-89
2024/04/03 03:42:39;;;;;;;31.15;12.70;;;;;;;;;;4922177;29;20045;-88
2024/04/03 03:45:05;;;;;;;29.95;13.68;;;;;;;;;;4923509;29;20039;-89
2024/04/03 03:47:34;;;;;;;33.92;13.20;;;;;;;;;;4926058;29;20419;-89
2024/04/03 03:52:47;;;;;;;34.03;13.85;;;;;;;;;;4957419;29;20050;-88
2024/04/03 03:55:13;;;;;;;34.90;14.80;;;;;;;;;;4925815;29;20395;-88
2024/04/03 03:57:39;;;;;;;40.75;15.23;;;;;;;;;;4925795;29;20039;-89
2024/04/03 04:00:05;;;;;;;37.95;15.20;;;;;;;;;;4925551;29;20044;-88
2024/04/03 04:02:32;;;;;;;38.63;15.55;;;;;;;;;;4925757;29;20089;-89
2024/04/03 04:04:58;;;;;;;36.40;15.48;;;;;;;;;;4941344;29;20046;-89
2024/04/03 04:07:24;;;;;;;36.17;15.68;;;;;;;;;;4925712;29;20043;-88
2024/04/03 04:09:50;;;;;;;37.17;16.88;;;;;;;;;;4941091;29;20043;-88
2024/04/03 04:12:17;;;;;;;38.13;16.55;;;;;;;;;;4925731;29;20490;-89
2024/04/03 04:14:48;;;;;;;38.03;16.27;;;;;;;;;;4925174;29;20043;-88
2024/04/03 04:17:15;;;;;;;37.67;17.05;;;;;;;;;;4925376;29;20079;-89
2024/04/03 04:19:41;;;;;;;31.25;15.43;;;;;;;;;;4925365;29;20039;-89
2024/04/03 04:22:07;;;;;;;41.78;17.60;;;;;;;;;;4925281;29;20443;-89
2024/04/03 04:24:36;;;;;;;40.00;17.65;;;;;;;;;;4941148;29;20047;-89
2024/04/03 04:27:04;;;;;;;41.60;18.25;;;;;;;;;;4925046;29;20079;-89
2024/04/03 04:29:31;;;;;;;43.72;18.73;;;;;;;;;;4925199;29;20051;-89
2024/04/03 04:31:58;;;;;;;35.97;17.10;;;;;;;;;;4924815;29;20467;-88
2024/04/03 04:34:25;;;;;;;47.38;19.00;;;;;;;;;;4925074;29;20043;-88
2024/04/03 04:36:51;;;;;;;48.47;20.88;;;;;;;;;;4941034;29;20533;-89
2024/04/03 04:39:17;;;;;;;44.05;19.58;;;;;;;;;;4925161;29;20130;-89
2024/04/03 04:41:43;;;;;;;49.90;20.45;;;;;;;;;;4956454;28;20094;-89
2024/04/03 04:44:10;;;;;;;43.60;20.95;;;;;;;;;;4943873;28;20051;-88
2024/04/03 04:46:36;;;;;;;46.13;21.17;;;;;;;;;;4959889;28;20043;-89
2024/04/03 04:49:02;;;;;;;50.00;21.30;;;;;;;;;;4943941;28;20046;-89
2024/04/03 04:51:28;;;;;;;45.28;21.58;;;;;;;;;;4943931;28;20504;-89
2024/04/03 04:53:54;;;;;;;41.72;20.77;;;;;;;;;;4943561;28;20053;-89
2024/04/03 04:56:20;;;;;;;46.67;23.50;;;;;;;;;;4942829;28;20034;-89
2024/04/03 04:58:46;;;;;;;45.78;22.80;;;;;;;;;;4943591;28;20401;-89
2024/04/03 05:01:12;;;;;;;48.30;22.20;;;;;;;;;;4944442;28;20050;-89
2024/04/03 05:03:38;;;;;;;46.58;22.88;;;;;;;;;;4943889;28;20046;-88
2024/04/03 05:06:05;;;;;;;49.92;23.77;;;;;;;;;;4943345;28;20042;-89
2024/04/03 05:08:31;;;;;;;44.35;22.75;;;;;;;;;;4943475;28;20038;-89
2024/04/03 05:10:58;;;;;;;43.50;22.23;;;;;;;;;;4943264;28;20074;-89
2024/04/03 05:13:25;;;;;;;47.42;22.55;;;;;;;;;;4943679;28;20043;-90
2024/04/03 05:15:51;;;;;;;46.28;23.67;;;;;;;;;;4943801;28;20101;-89
2024/04/03 05:18:17;;;;;;;46.60;23.55;;;;;;;;;;4960116;28;20046;-88
2024/04/03 05:20:43;;;;;;;50.15;24.52;;;;;;;;;;4943690;28;20090;-88
2024/04/03 05:23:09;;;;;;;56.42;26.52;;;;;;;;;;4943482;28;20047;-89
2024/04/03 05:25:36;;;;;;;53.88;26.92;;;;;;;;;;4959470;28;20053;-88
2024/04/03 05:28:02;;;;;;;55.92;26.45;;;;;;;;;;4943966;28;20066;-90
2024/04/03 05:30:28;;;;;;;49.70;25.20;;;;;;;;;;4959301;28;20050;-89
2024/04/03 05:32:55;;;;;;;63.40;27.98;;;;;;;;;;4943549;28;20038;-90
2024/04/03 05:35:21;;;;;;;60.03;27.33;;;;;;;;;;4943023;28;20418;-89
2024/04/03 05:37:47;;;;;;;60.72;27.10;;;;;;;;;;4942679;28;20042;-89
2024/04/03 05:40:14;;;;;;;61.70;26.48;;;;;;;;;;4938674;29;20505;-88
2024/04/03 05:42:40;;;;;;;46.85;24.42;;;;;;;;;;4923969;29;20376;-89
2024/04/03 05:45:06;;;;;;;46.53;25.50;;;;;;;;;;4939409;29;20113;-89
2024/04/03 05:47:33;;;;;;;52.53;26.02;;;;;;;;;;4923895;29;20082;-89
2024/04/03 05:50:05;;;;;;;59.63;27.10;;;;;;;;;;4923531;29;20053;-89
2024/04/03 05:52:31;;;;;;;56.13;26.42;;;;;;;;;;4923712;29;20094;-89
2024/04/03 05:54:58;;;;;;;56.13;25.88;;;;;;;;;;4938904;29;20081;-89
2024/04/03 05:57:24;;;;;;;48.85;25.35;;;;;;;;;;4923463;29;20091;-88
2024/04/03 05:59:50;;;;;;;53.45;26.42;;;;;;;;;;4939194;29;20039;-89
2024/04/03 06:02:16;;;;;;;52.63;25.80;;;;;;;;;;4939195;29;20049;-89
2024/04/03 06:04:42;;;;;;;48.90;26.30;;;;;;;;;;4923526;29;20403;-89
2024/04/03 06:07:08;;;;;;;56.80;26.58;;;;;;;;;;4938993;28;20134;-89
2024/04/03 06:09:34;;;;;;;48.67;24.75;;;;;;;;;;4922632;29;20043;-89
2024/04/03 06:12:00;;;;;;;48.97;25.38;;;;;;;;;;4923152;29;20047;-89
2024/04/03 06:14:26;;;;;;;46.55;24.75;;;;;;;;;;4938947;29;20595;-89
2024/04/03 06:16:52;;;;;;;48.38;24.70;;;;;;;;;;4923072;29;20143;-89
2024/04/03 06:19:19;;;;;;;46.10;24.48;;;;;;;;;;4938814;29;20055;-89
2024/04/03 06:21:45;;;;;;;45.90;23.20;;;;;;;;;;4939924;29;20558;-89
2024/04/03 06:24:11;;;;;;;45.75;22.83;;;;;;;;;;4923098;29;20047;-89
2024/04/03 06:26:37;;;;;;;42.00;22.05;;;;;;;;;;4923174;29;20043;-89
2024/04/03 06:29:03;;;;;;;38.22;22.48;;;;;;;;;;4923137;29;20486;-89
2024/04/03 06:31:30;;;;;;;34.88;21.30;;;;;;;;;;4922773;29;20498;-89
2024/04/03 06:33:58;;;;;;;36.53;21.58;;;;;;;;;;4922857;29;20043;-89
2024/04/03 06:36:25;;;;;;;38.15;21.52;;;;;;;;;;4938057;29;20054;-89
2024/04/03 06:38:51;;;;;;;35.83;21.40;;;;;;;;;;4937765;29;20126;-89
2024/04/03 06:41:17;;;;;;;32.50;21.08;;;;;;;;;;4929603;29;20051;-89
2024/04/03 06:43:43;;;;;;;30.33;19.42;;;;;;;;;;4938817;29;20067;-89
2024/04/03 06:46:09;;;;;;;33.17;20.17;;;;;;;;;;4923443;29;20083;-89
2024/04/03 06:48:35;;;;;;;29.88;19.00;;;;;;;;;;4922543;29;20046;-89
2024/04/03 06:51:03;;;;;;;30.48;19.92;;;;;;;;;;4922593;29;20047;-89
2024/04/03 06:53:29;;;;;;;28.90;17.58;;;;;;;;;;4922611;29;20074;-89
2024/04/03 06:55:55;;;;;;;27.83;17.45;;;;;;;;;;4930511;29;20043;-88
2024/04/03 06:58:22;;;;;;;28.52;16.98;;;;;;;;;;4937418;29;20046;-89
2024/04/03 07:00:48;;;;;;;23.35;16.45;;;;;;;;;;4933535;29;20043;-89
2024/04/03 07:03:14;;;;;;;26.30;17.33;;;;;;;;;;4922965;29;20039;-89
2024/04/03 07:05:40;;;;;;;22.20;14.50;;;;;;;;;;4923274;29;20050;-89
2024/04/03 07:08:06;;;;;;;23.48;15.73;;;;;;;;;;4922429;29;20090;-89
2024/04/03 07:10:33;;;;;;;23.83;15.85;;;;;;;;;;4938339;29;20047;-89
2024/04/03 07:13:01;;;;;;;19.58;14.70;;;;;;;;;;4938250;29;20043;-89
2024/04/03 07:15:29;;;;;;;19.65;14.35;;;;;;;;;;4922320;29;20403;-89
2024/04/03 07:17:55;;;;;;;23.30;15.02;;;;;;;;;;4923101;29;20050;-89
2024/04/03 07:20:25;;;;;;;22.02;14.45;;;;;;;;;;4924555;29;20046;-89
2024/04/03 07:22:57;;;;;;;20.98;15.70;;;;;;;;;;4941940;29;20039;-89
2024/04/03 07:25:24;;;;;;;19.77;13.70;;;;;;;;;;4941950;29;20039;-89
2024/04/03 07:27:55;;;;;;;23.40;14.52;;;;;;;;;;4942302;29;20039;-89
2024/04/03 07:30:21;;;;;;;19.77;13.68;;;;;;;;;;4925949;29;20046;-89
2024/04/03 07:32:47;;;;;;;20.63;12.93;;;;;;;;;;4941985;29;20039;-89
2024/04/03 07:35:17;;;;;;;16.80;12.80;;;;;;;;;;4926169;29;20063;-89
2024/04/03 07:37:49;;;;;;;16.65;11.35;;;;;;;;;;4925772;29;20046;-89
2024/04/03 07:40:15;;;;;;;18.92;12.20;;;;;;;;;;4925675;29;20063;-89
2024/04/03 07:42:43;;;;;;;14.88;12.18;;;;;;;;;;4925874;29;20097;-89
2024/04/03 07:45:10;;;;;;;16.90;11.50;;;;;;;;;;4925992;29;20517;-89
2024/04/03 07:47:36;;;;;;;15.73;11.23;;;;;;;;;;4925771;29;20490;-89
2024/04/03 07:50:06;;;;;;;18.63;10.77;;;;;;;;;;4925671;29;20517;-89
2024/04/03 07:52:33;;;;;;;15.20;11.15;;;;;;;;;;4925605;29;20047;-89
2024/04/03 07:54:59;;;;;;;15.75;10.80;;;;;;;;;;4941412;29;20048;-89
2024/04/03 07:57:25;;;;;;;17.38;11.95;;;;;;;;;;4925834;29;20058;-89
2024/04/03 07:59:51;;;;;;;17.17;11.07;;;;;;;;;;4925921;29;20039;-89
2024/04/03 08:02:17;;;;;;;15.38;10.60;;;;;;;;;;4941473;29;20131;-89
2024/04/03 08:04:43;;;;;;;15.85;11.23;;;;;;;;;;4925584;29;20051;-89
2024/04/03 08:07:09;;;;;;;15.23;10.88;;;;;;;;;;4925758;29;20101;-89
2024/04/03 08:09:35;;;;;;;13.77;10.60;;;;;;;;;;4925465;29;20129;-89
2024/04/03 08:12:02;;;;;;;11.45;9.18;;;;;;;;;;4925274;29;20054;-88
2024/04/03 08:14:28;;;;;;;15.70;10.18;;;;;;;;;;4941021;29;20047;-88
2024/04/03 08:16:54;;;;;;;12.25;10.07;;;;;;;;;;4925446;29;20031;-88
2024/04/03 08:19:21;;;;;;;12.57;9.75;;;;;;;;;;4926479;29;20039;-89
2024/04/03 08:21:48;;;;;;;14.05;9.55;;;;;;;;;;4925104;29;20043;-90
2024/04/03 08:24:14;;;;;;;12.18;9.00;;;;;;;;;;4925340;29;20043;-89
2024/04/03 08:26:40;;;;;;;11.20;8.60;;;;;;;;;;4925095;29;20050;-89
2024/04/03 08:29:06;;;;;;;14.05;7.80;;;;;;;;;;4941144;29;20129;-89
2024/04/03 08:31:32;;;;;;;10.82;7.93;;;;;;;;;;4923998;29;20054;-88
2024/04/03 08:33:59;;;;;;;17.00;7.80;;;;;;;;;;4924793;29;20114;-89
2024/04/03 08:36:25;;;;;;;10.82;7.65;;;;;;;;;;4941172;29;20390;-88
2024/04/03 08:38:51;;;;;;;11.25;6.88;;;;;;;;;;4924750;29;20065;-88
2024/04/03 08:41:17;;;;;;;12.35;7.95;;;;;;;;;;4953018;28;20467;-88
2024/04/03 08:43:43;;;;;;;11.07;8.07;;;;;;;;;;4944100;28;20449;-88
2024/04/03 08:46:09;;;;;;;10.98;8.02;;;;;;;;;;4959681;28;20126;-89
2024/04/03 08:48:38;;;;;;;9.68;7.72;;;;;;;;;;4943707;28;20046;-88
2024/04/03 08:51:05;;;;;;;11.52;8.02;;;;;;;;;;4944335;28;20043;-88
2024/04/03 08:53:31;;;;;;;11.70;7.78;;;;;;;;;;4943717;28;20051;-88
2024/04/03 08:55:58;;;;;;;11.00;7.80;;;;;;;;;;4943648;28;20499;-88
2024/04/03 08:58:25;;;;;;;10.45;8.45;;;;;;;;;;4943382;28;20090;-88
2024/04/03 09:00:51;;;;;;;11.90;9.00;;;;;;;;;;4943661;28;20376;-88
2024/04/03 09:03:19;;;;;;;16.27;9.20;;;;;;;;;;4959288;28;20075;-89
2024/04/03 09:05:49;;;;;;;11.25;8.50;;;;;;;;;;4943077;28;20042;-89
2024/04/03 09:08:15;;;;;;;14.43;9.15;;;;;;;;;;4943109;28;20054;-89
2024/04/03 09:10:49;;;;;;;13.43;10.07;;;;;;;;;;4943360;28;20093;-88
2024/04/03 09:13:15;;;;;;;12.43;10.20;;;;;;;;;;4943072;28;20046;-88
2024/04/03 09:15:41;;;;;;;15.57;11.73;;;;;;;;;;4943519;28;20038;-89
2024/04/03 09:18:08;;;;;;;14.93;11.60;;;;;;;;;;4943342;28;20039;-89
2024/04/03 09:20:35;;;;;;;15.27;12.15;;;;;;;;;;4942989;28;20042;-91
2024/04/03 09:23:01;;;;;;;12.48;11.18;;;;;;;;;;4943293;28;20188;-88
2024/04/03 09:25:31;;;;;;;15.52;11.27;;;;;;;;;;4943309;28;20486;-89
2024/04/03 09:28:02;;;;;;;14.98;10.77;;;;;;;;;;4943027;28;20074;-89
2024/04/03 09:30:29;;;;;;;15.38;10.63;;;;;;;;;;4958944;28;20042;-89
2024/04/03 09:32:59;;;;;;;17.38;10.40;;;;;;;;;;4942753;28;20043;-89
2024/04/03 09:35:30;;;;;;;11.63;9.07;;;;;;;;;;4958780;28;20046;-89
2024/04/03 09:37:56;;;;;;;13.98;8.95;;;;;;;;;;4958809;28;20035;-89
2024/04/03 09:40:27;;;;;;;11.52;7.82;;;;;;;;;;4937657;29;20138;-89
2024/04/03 09:43:03;;;;;;;11.18;8.55;;;;;;;;;;4939425;29;20075;-89
2024/04/03 09:45:30;;;;;;;10.68;7.45;;;;;;;;;;4923697;29;20039;-89
2024/04/03 09:48:00;;;;;;;11.70;6.32;;;;;;;;;;4923522;29;20039;-89
2024/04/03 09:50:45;;;;;;;8.98;6.22;;;;;;;;;;4923877;29;20074;-89
2024/04/03 09:53:11;;;;;;;;;;;;;;;;;;4923845;29;20058;-89
2024/04/03 09:55:37;;;;;;;12.23;5.85;;;;;;;;;;4955233;29;19918;-89
2024/04/03 09:58:10;;;;;;;11.23;5.55;;;;;;;;;;4923451;29;20047;-89
2024/04/03 10:00:37;;;;;;;8.38;5.38;;;;;;;;;;4923936;29;20043;-90
2024/04/03 10:03:03;;;;;;;8.38;5.50;;;;;;;;;;4923527;29;20406;-90
2024/04/03 10:05:42;;;;;;;8.57;5.55;;;;;;;;;;4923624;29;20055;-90
2024/04/03 10:08:12;;;;;;;10.05;5.50;;;;;;;;;;4939065;29;20043;-89
2024/04/03 10:10:48;;;;;;;10.45;6.20;;;;;;;;;;4923204;29;20043;-90
2024/04/03 10:13:19;;;;;;;11.52;6.22;;;;;;;;;;4923379;29;20130;-89
2024/04/03 10:15:45;;;;;;;12.13;7.40;;;;;;;;;;4923344;29;20546;-90
2024/04/03 10:18:16;;;;;;;12.15;7.93;;;;;;;;;;4923019;29;20043;-89
2024/04/03 10:20:42;;;;;;;11.95;8.85;;;;;;;;;;4938788;29;20039;-89
2024/04/03 10:23:08;;;;;;;11.93;8.38;;;;;;;;;;4923255;29;20391;-89
2024/04/03 10:25:35;;;;;;;12.77;7.07;;;;;;;;;;4938808;29;20046;-89
2024/04/03 10:28:02;;;;;;;8.45;6.90;;;;;;;;;;4923410;29;20039;-90
2024/04/03 10:30:28;;;;;;;15.32;7.35;;;;;;;;;;4922952;29;20039;-89
2024/04/03 10:32:54;;;;;;;14.15;8.70;;;;;;;;;;4922889;29;20043;-90
2024/04/03 10:35:21;;;;;;;14.30;8.32;;;;;;;;;;4922758;29;20055;-90
2024/04/03 10:37:47;;;;;;;10.18;7.55;;;;;;;;;;4922729;29;20043;-90
2024/04/03 10:40:13;;;;;;;8.90;7.13;;;;;;;;;;4922466;29;20059;-89
2024/04/03 10:42:39;;;;;;;11.98;6.10;;;;;;;;;;4938829;29;20118;-90
2024/04/03 10:45:08;;;;;;;8.82;6.35;;;;;;;;;;4922556;29;20128;-89
2024/04/03 10:47:34;;;;;;;9.60;5.93;;;;;;;;;;4922640;29;20082;-90
2024/04/03 10:50:00;;;;;;;10.77;5.70;;;;;;;;;;4939768;29;20086;-89
2024/04/03 10:52:28;;;;;;;7.35;4.80;;;;;;;;;;4960506;29;20455;-90
2024/04/03 10:54:54;;;;;;;8.00;5.05;;;;;;;;;;4950876;29;20048;-90
2024/04/03 10:57:21;;;;;;;9.18;5.30;;;;;;;;;;4922809;29;20090;-89
2024/04/03 10:59:47;;;;;;;10.80;5.22;;;;;;;;;;4938568;29;20054;-89
2024/04/03 11:02:15;;;;;;;9.07;4.68;;;;;;;;;;4923043;29;20043;-90
2024/04/03 11:04:41;;;;;;;7.63;3.88;;;;;;;;;;4922802;29;20051;-90
2024/04/03 11:07:08;;;;;;;9.38;4.63;;;;;;;;;;4923149;29;20047;-90
2024/04/03 11:09:34;;;;;;;9.25;4.63;;;;;;;;;;4931195;29;20043;-88
2024/04/03 11:12:03;;;;;;;10.00;5.72;;;;;;;;;;4960184;29;20135;-90
2024/04/03 11:14:30;;;;;;;10.23;4.63;;;;;;;;;;4958192;29;20106;-90
2024/04/03 11:16:57;;;;;;;7.68;4.45;;;;;;;;;;4939396;29;20550;-90
2024/04/03 11:19:23;;;;;;;7.82;4.30;;;;;;;;;;4922621;29;20043;-90
2024/04/03 11:21:49;;;;;;;7.93;4.38;;;;;;;;;;4922915;29;20043;-90
2024/04/03 11:24:16;;;;;;;6.45;4.55;;;;;;;;;;4922347;29;20478;-90
2024/04/03 11:26:43;;;;;;;9.30;5.00;;;;;;;;;;4922663;29;20039;-90
2024/04/03 11:29:25;;;;;;;8.02;4.57;;;;;;;;;;4922473;29;20110;-89
2024/04/03 11:31:52;;;;;;;8.23;4.07;;;;;;;;;;4922458;29;20051;-90
2024/04/03 11:34:17;;;;;;;7.35;3.58;;;;;;;;;;4922207;29;20043;-91
2024/04/03 11:36:44;;;;;;;7.20;4.10;;;;;;;;;;4937992;29;20047;-91
2024/04/03 11:39:10;;;;;;;7.28;3.33;;;;;;;;;;4938547;29;20376;-90
2024/04/03 11:41:36;;;;;;;5.70;3.63;;;;;;;;;;4921738;29;20087;-90
2024/04/03 11:44:02;;;;;;;8.73;5.38;;;;;;;;;;4922088;29;20537;-91
2024/04/03 11:46:28;;;;;;;6.53;3.10;;;;;;;;;;4938162;29;20110;-91
2024/04/03 11:48:54;;;;;;;4.78;3.05;;;;;;;;;;4922066;29;20039;-91
2024/04/03 11:51:23;;;;;;;4.97;2.90;;;;;;;;;;4922131;29;20053;-90
2024/04/03 11:53:51;;;;;;;7.45;3.22;;;;;;;;;;4922030;29;20047;-90
2024/04/03 11:56:19;;;;;;;7.53;3.22;;;;;;;;;;4922237;29;20487;-91
2024/04/03 11:58:50;;;;;;;4.18;2.58;;;;;;;;;;4921770;29;20090;-91
2024/04/03 12:01:17;;;;;;;4.45;2.67;;;;;;;;;;4922054;29;20086;-90
2024/04/03 12:03:43;;;;;;;4.70;2.80;;;;;;;;;;4937624;29;20047;-91
2024/04/03 12:06:10;;;;;;;5.07;3.22;;;;;;;;;;4939380;29;20070;-91
2024/04/03 12:08:36;;;;;;;4.20;2.70;;;;;;;;;;4925322;29;20039;-91
2024/04/03 12:11:04;;;;;;;5.32;2.72;;;;;;;;;;4925533;29;20069;-91
2024/04/03 12:13:30;;;;;;;5.78;3.15;;;;;;;;;;4925247;29;20399;-91
2024/04/03 12:15:56;;;;;;;4.07;2.70;;;;;;;;;;4925347;29;20082;-91
2024/04/03 12:18:25;;;;;;;4.28;2.85;;;;;;;;;;4925142;29;20039;-91
2024/04/03 12:20:54;;;;;;;4.70;3.22;;;;;;;;;;4940932;29;20495;-90
2024/04/03 12:23:21;;;;;;;3.58;2.67;;;;;;;;;;4925063;29;20447;-90
2024/04/03 12:25:47;;;;;;;3.53;2.50;;;;;;;;;;4940904;29;20043;-89
2024/04/03 12:28:16;;;;;;;5.50;2.97;;;;;;;;;;4925621;29;20071;-90
2024/04/03 12:30:42;;;;;;;4.80;2.78;;;;;;;;;;4925544;29;20089;-90
2024/04/03 12:33:08;;;;;;;3.63;3.05;;;;;;;;;;4941095;29;20046;-89
2024/04/03 12:35:35;;;;;;;3.85;2.65;;;;;;;;;;4940756;29;20043;-90
2024/04/03 12:38:01;;;;;;;4.65;2.97;;;;;;;;;;4940706;29;20094;-89
2024/04/03 12:40:27;;;;;;;4.43;2.88;;;;;;;;;;4924676;29;20051;-90
2024/04/03 12:42:53;;;;;;;4.75;3.58;;;;;;;;;;4924652;29;20075;-90
2024/04/03 12:45:19;;;;;;;5.90;3.78;;;;;;;;;;4924647;29;20087;-90
2024/04/03 12:47:45;;;;;;;5.07;4.20;;;;;;;;;;4924840;29;20051;-89
2024/04/03 12:50:11;;;;;;;5.25;3.22;;;;;;;;;;4924896;29;20391;-90
2024/04/03 12:52:37;;;;;;;3.65;3.25;;;;;;;;;;4924455;29;20491;-90
2024/04/03 12:55:04;;;;;;;4.53;2.60;;;;;;;;;;4924343;29;20043;-90
2024/04/03 12:57:30;;;;;;;3.47;2.00;;;;;;;;;;4924353;29;20542;-90
2024/04/03 12:59:56;;;;;;;3.65;1.98;;;;;;;;;;4924681;29;20130;-90
2024/04/03 13:02:23;;;;;;;2.85;2.13;;;;;;;;;;4924895;29;20066;-90
2024/04/03 13:04:49;;;;;;;3.28;1.90;;;;;;;;;;4924556;29;20491;-90
2024/04/03 13:07:15;;;;;;;2.63;2.05;;;;;;;;;;4940269;29;20047;-90
2024/04/03 13:09:41;;;;;;;4.20;2.70;;;;;;;;;;4924313;29;20043;-90
2024/04/03 13:12:09;;;;;;;3.38;2.88;;;;;;;;;;4940135;29;20047;-90
2024/04/03 13:14:35;;;;;;;3.75;3.10;;;;;;;;;;4923954;29;20046;-90
2024/04/03 13:17:02;;;;;;;4.00;3.08;;;;;;;;;;4923265;29;20483;-90
2024/04/03 13:19:28;;;;;;;4.05;2.75;;;;;;;;;;4923365;29;20050;-89
2024/04/03 13:21:54;;;;;;;4.95;3.60;;;;;;;;;;4939561;29;20043;-89
2024/04/03 13:24:20;;;;;;;4.50;3.17;;;;;;;;;;4923607;29;20430;-89
2024/04/03 13:26:46;;;;;;;5.60;3.85;;;;;;;;;;4923463;29;20101;-89
2024/04/03 13:29:13;;;;;;;4.70;3.63;;;;;;;;;;4923401;29;20051;-89
2024/04/03 13:31:40;;;;;;;6.57;3.30;;;;;;;;;;4923611;29;20130;-89
2024/04/03 13:34:06;;;;;;;4.90;3.72;;;;;;;;;;4923904;29;20043;-89
2024/04/03 13:36:32;;;;;;;3.40;2.78;;;;;;;;;;4939470;29;20042;-89
2024/04/03 13:38:58;;;;;;;4.50;3.30;;;;;;;;;;4923774;29;20036;-89
2024/04/03 13:41:24;;;;;;;3.83;3.10;;;;;;;;;;4952933;28;20086;-89
2024/04/03 13:43:50;;;;;;;4.57;3.33;;;;;;;;;;4958685;28;20050;-89
2024/04/03 13:46:16;;;;;;;4.75;3.10;;;;;;;;;;4942804;28;20047;-89
2024/04/03 13:48:42;;;;;;;4.25;2.70;;;;;;;;;;4958585;28;20039;-89
2024/04/03 13:51:08;;;;;;;7.38;4.10;;;;;;;;;;4942803;28;20445;-89
2024/04/03 13:53:35;;;;;;;4.55;3.00;;;;;;;;;;4942643;28;20042;-89
2024/04/03 13:56:09;;;;;;;4.93;2.38;;;;;;;;;;4942488;28;20042;-89
2024/04/03 13:58:35;;;;;;;3.50;2.60;;;;;;;;;;4942717;28;20386;-89
2024/04/03 14:01:05;;;;;;;4.70;2.60;;;;;;;;;;4958490;28;20043;-89
2024/04/03 14:03:31;;;;;;;4.88;2.75;;;;;;;;;;4942569;28;20101;-89
2024/04/03 14:05:58;;;;;;;4.18;2.70;;;;;;;;;;4958317;28;20498;-89
2024/04/03 14:08:24;;;;;;;6.15;3.80;;;;;;;;;;4942095;28;20045;-89
2024/04/03 14:10:50;;;;;;;5.88;3.30;;;;;;;;;;4942107;28;20486;-89
2024/04/03 14:13:16;;;;;;;4.50;3.40;;;;;;;;;;4942255;28;20057;-89
2024/04/03 14:15:42;;;;;;;6.82;3.30;;;;;;;;;;4942232;28;20129;-89
2024/04/03 14:18:08;;;;;;;4.78;3.47;;;;;;;;;;4942471;28;20093;-89
2024/04/03 14:20:37;;;;;;;4.18;3.15;;;;;;;;;;4958004;28;20046;-89
2024/04/03 14:23:03;;;;;;;4.63;3.20;;;;;;;;;;4942077;28;20501;-89
2024/04/03 14:25:29;;;;;;;6.28;3.70;;;;;;;;;;4942142;28;20053;-89
2024/04/03 14:27:55;;;;;;;7.78;3.83;;;;;;;;;;4942328;28;20047;-89